Time;durP1;ratioP1;P1;durP2;ratioP2;P2;SDS_P1;SDS_P2;PMS_P1;PMS_P2;Temp;Humidity;BMP_temperature;BMP_pressure;BME280_temperature;BME280_humidity;BME280_pressure;Samples;Min_cycle;Max_cycle;Signal;HPM_P1;HPM_P2
2022/12/24 00:00:13;;;;;;;;;;;6.50;99.90;;;;;;4983776;28;20128;-87
2022/12/24 00:02:44;;;;;;;19.52;11.27;;;6.60;99.90;;;;;;5002833;28;20558;-86
2022/12/24 00:05:17;;;;;;;24.20;12.38;;;6.60;99.90;;;;;;5014634;28;20045;-86
2022/12/24 00:07:43;;;;;;;22.05;12.10;;;6.50;99.90;;;;;;5000214;28;20118;-86
2022/12/24 00:10:09;;;;;;;22.65;12.15;;;6.60;99.90;;;;;;5015700;28;20057;-87
2022/12/24 00:12:46;;;;;;;;;;;;;;;;;;;;;
2022/12/24 00:15:14;;;;;;;23.08;12.40;;;6.50;99.90;;;;;;5017278;28;20045;-86
2022/12/24 00:17:42;;;;;;;22.35;12.55;;;6.40;99.90;;;;;;4984448;28;20054;-86
2022/12/24 00:20:29;;;;;;;21.80;12.80;;;6.60;99.90;;;;;;5014663;28;20073;-86
2022/12/24 00:23:03;;;;;;;;;;;6.50;99.90;;;;;;5013885;28;20088;-86
2022/12/24 00:25:36;;;;;;;20.48;12.07;;;6.50;99.90;;;;;;4999613;28;19925;-88
2022/12/24 00:28:13;;;;;;;21.63;12.95;;;6.50;99.90;;;;;;4996858;28;20851;-86
2022/12/24 00:30:40;;;;;;;22.50;12.93;;;6.40;99.90;;;;;;5013735;28;20044;-87
2022/12/24 00:33:22;;;;;;;25.75;14.07;;;6.70;99.90;;;;;;5006062;28;20038;-88
2022/12/24 00:35:53;;;;;;;25.60;13.60;;;6.60;99.90;;;;;;4995499;28;20057;-86
2022/12/24 00:41:28;;;;;;;23.70;13.10;;;6.40;99.90;;;;;;5000300;28;20128;-88
2022/12/24 00:44:35;;;;;;;26.15;13.82;;;6.40;99.90;;;;;;5009285;28;20582;-91
2022/12/24 00:47:03;;;;;;;27.85;14.27;;;6.60;99.90;;;;;;4997030;28;20058;-88
2022/12/24 00:49:29;;;;;;;24.70;14.25;;;6.60;99.90;;;;;;5000340;28;20038;-87
2022/12/24 00:52:14;;;;;;;;;;;;;;;;;;;;;
2022/12/24 00:54:47;;;;;;;28.90;13.95;;;6.60;99.90;;;;;;4996735;28;20068;-86
2022/12/24 00:57:36;;;;;;;29.40;13.55;;;6.50;99.90;;;;;;5014597;28;20083;-86
2022/12/24 01:00:05;;;;;;;25.58;13.77;;;6.60;99.90;;;;;;4999565;28;20065;-87
2022/12/24 01:02:58;;;;;;;;;;;;;;;;;;;;;
2022/12/24 01:05:35;;;;;;;26.23;14.13;;;6.60;99.90;;;;;;5017797;28;20526;-86
2022/12/24 01:08:08;;;;;;;29.70;14.23;;;6.50;99.90;;;;;;5000844;28;20136;-86
2022/12/24 01:10:41;;;;;;;23.20;12.98;;;6.60;99.90;;;;;;4982248;28;20080;-87
2022/12/24 01:13:07;;;;;;;26.35;13.23;;;6.80;99.90;;;;;;4967517;28;20048;-86
2022/12/24 01:15:42;;;;;;;26.33;13.10;;;6.50;99.90;;;;;;5002595;28;20053;-86
2022/12/24 01:18:21;;;;;;;26.20;13.27;;;6.60;99.90;;;;;;5016086;28;20050;-85
2022/12/24 01:21:15;;;;;;;21.38;12.63;;;6.60;99.90;;;;;;4963769;28;20058;-86
2022/12/24 01:23:46;;;;;;;26.45;12.63;;;6.60;99.90;;;;;;5015004;28;20041;-87
2022/12/24 01:26:20;;;;;;;23.83;11.68;;;7.10;99.90;;;;;;5014374;28;20207;-86
2022/12/24 01:29:06;;;;;;;21.02;11.80;;;6.60;99.90;;;;;;4979128;28;20102;-86
2022/12/24 01:31:37;;;;;;;22.45;11.52;;;6.70;99.90;;;;;;4997513;28;20151;-87
2022/12/24 01:34:16;;;;;;;21.58;11.52;;;6.70;99.90;;;;;;4998731;28;20060;-88
2022/12/24 01:36:54;;;;;;;21.30;11.52;;;6.40;99.90;;;;;;5006706;28;20120;-85
2022/12/24 01:39:25;;;;;;;18.25;10.98;;;6.60;99.90;;;;;;4996727;28;20458;-85
2022/12/24 01:44:59;;;;;;;;;;;;;;;;;;;;;
2022/12/24 01:47:33;;;;;;;22.63;12.13;;;6.70;99.90;;;;;;5014205;28;20037;-85
2022/12/24 01:50:35;;;;;;;22.73;11.20;;;6.70;99.90;;;;;;4987014;28;20505;-87
2022/12/24 01:53:18;;;;;;;;;;;;;;;;;;;;;
2022/12/24 01:55:55;;;;;;;;;;;;;;;;;;;;;
2022/12/24 01:58:25;;;;;;;18.75;9.82;;;6.90;99.90;;;;;;5012228;28;20518;-88
2022/12/24 02:00:56;;;;;;;15.80;9.65;;;6.80;99.90;;;;;;4998842;28;20093;-86
2022/12/24 02:03:25;;;;;;;16.48;8.95;;;6.60;99.90;;;;;;4995579;28;20551;-85
2022/12/24 02:06:29;;;;;;;17.30;9.63;;;7.90;99.90;;;;;;4999385;28;20061;-88
2022/12/24 02:09:07;;;;;;;;;;;;;;;;;;;;;
2022/12/24 02:11:45;;;;;;;14.45;7.80;;;6.40;99.90;;;;;;4993875;28;20042;-85
2022/12/24 02:14:20;;;;;;;18.15;7.85;;;7.30;99.90;;;;;;4992936;28;20384;-87
2022/12/24 02:16:59;;;;;;;17.85;7.80;;;7.00;99.90;;;;;;4992308;28;20136;-86
2022/12/24 02:19:45;;;;;;;13.65;7.40;;;6.90;99.90;;;;;;4999547;28;20120;-88
2022/12/24 02:22:20;;;;;;;18.48;6.88;;;6.80;99.90;;;;;;5001370;28;20053;-87
2022/12/24 02:25:31;;;;;;;17.90;5.65;;;6.90;99.90;;;;;;4998320;28;20052;-85
2022/12/24 02:28:27;;;;;;;11.55;4.78;;;6.90;99.90;;;;;;5011782;28;20525;-85
2022/12/24 02:31:03;;;;;;;16.88;4.35;;;6.90;99.90;;;;;;5002756;28;20069;-86
2022/12/24 02:33:32;;;;;;;;;;;7.00;99.90;;;;;;4997620;28;20052;-86
2022/12/24 02:36:17;;;;;;;17.15;4.60;;;7.10;99.90;;;;;;4997211;28;20024;-87
2022/12/24 02:38:57;;;;;;;18.42;4.90;;;7.10;99.90;;;;;;4985573;28;20042;-86
2022/12/24 02:42:04;;;;;;;14.68;5.10;;;7.10;99.90;;;;;;4991034;28;20058;-86
2022/12/24 02:44:34;;;;;;;17.77;4.72;;;7.30;99.90;;;;;;5006892;28;20050;-86
2022/12/24 02:47:06;;;;;;;20.83;5.25;;;7.10;99.90;;;;;;4998559;28;20038;-86
2022/12/24 02:49:37;;;;;;;17.13;5.05;;;7.50;99.90;;;;;;4979370;28;20052;-86
2022/12/24 02:52:05;;;;;;;18.98;5.15;;;6.50;99.90;;;;;;5012665;28;20050;-86
2022/12/24 02:54:42;;;;;;;;;;;;;;;;;;;;;
2022/12/24 02:57:45;;;;;;;18.27;5.35;;;7.00;99.90;;;;;;5015384;28;20062;-87
2022/12/24 03:00:19;;;;;;;20.75;5.22;;;7.10;99.90;;;;;;5011325;28;20064;-87
2022/12/24 03:03:06;;;;;;;18.67;4.70;;;7.10;99.90;;;;;;5009169;28;20061;-84
2022/12/24 03:05:55;;;;;;;22.73;5.13;;;7.20;99.90;;;;;;4998504;28;20410;-85
2022/12/24 03:09:06;;;;;;;13.68;5.32;;;7.20;99.90;;;;;;4996468;28;20053;-87
2022/12/24 03:11:56;;;;;;;19.48;5.25;;;7.20;99.90;;;;;;5016429;28;20119;-86
2022/12/24 03:14:33;;;;;;;21.77;5.72;;;7.20;99.90;;;;;;4992587;28;20088;-87
2022/12/24 03:17:04;;;;;;;22.05;5.18;;;7.20;99.90;;;;;;5010599;28;20105;-85
2022/12/24 03:19:42;;;;;;;18.33;5.20;;;7.10;99.90;;;;;;4994067;28;20126;-86
2022/12/24 03:22:27;;;;;;;24.25;5.47;;;7.30;99.90;;;;;;4978945;28;20088;-86
2022/12/24 03:24:58;;;;;;;20.17;5.20;;;7.10;99.90;;;;;;4997952;28;20050;-88
2022/12/24 03:27:31;;;;;;;26.17;5.82;;;7.00;99.90;;;;;;4996532;28;20054;-85
2022/12/24 03:30:17;;;;;;;25.70;5.65;;;6.90;99.90;;;;;;4993251;28;20045;-86
2022/12/24 03:32:46;;;;;;;21.30;5.30;;;6.90;99.90;;;;;;4994507;28;20037;-85
2022/12/24 03:35:17;;;;;;;31.92;4.88;;;6.90;99.90;;;;;;5000428;28;20046;-88
2022/12/24 03:37:43;;;;;;;30.30;5.50;;;6.90;99.90;;;;;;5001869;28;20558;-87
2022/12/24 03:40:16;;;;;;;21.92;4.93;;;6.70;99.90;;;;;;5015610;28;20057;-88
2022/12/24 03:42:47;;;;;;;26.35;5.38;;;6.70;99.90;;;;;;5017415;28;20035;-87
2022/12/24 03:45:13;;;;;;;33.20;4.57;;;6.50;99.90;;;;;;4998625;28;20089;-85
2022/12/24 03:47:49;;;;;;;22.98;3.88;;;5.40;99.90;;;;;;5009794;28;20122;-86
2022/12/24 03:50:14;;;;;;;;;;;5.80;99.90;;;;;;4984421;28;20042;-85
2022/12/24 03:52:41;;;;;;;26.45;3.63;;;;;;;;;;5002473;28;19983;-86
2022/12/24 03:55:07;;;;;;;28.17;5.13;;;6.30;99.90;;;;;;5019744;28;20048;-87
2022/12/24 03:57:39;;;;;;;26.92;4.47;;;6.20;99.90;;;;;;5001501;28;20047;-87
2022/12/24 04:00:08;;;;;;;24.05;4.15;;;6.20;99.90;;;;;;5003551;28;20186;-86
2022/12/24 04:02:44;;;;;;;31.10;4.78;;;6.20;99.90;;;;;;4998629;28;20064;-86
2022/12/24 04:05:30;;;;;;;34.20;5.18;;;6.30;99.90;;;;;;4999533;28;20079;-86
2022/12/24 04:07:58;;;;;;;32.90;6.22;;;6.50;99.90;;;;;;5022726;28;20061;-85
2022/12/24 04:10:26;;;;;;;36.40;6.28;;;6.40;99.90;;;;;;4983064;28;20093;-90
2022/12/24 04:12:57;;;;;;;33.25;6.05;;;6.60;99.90;;;;;;5000243;28;20054;-87
2022/12/24 04:15:31;;;;;;;37.67;5.57;;;6.70;99.90;;;;;;5004345;28;20047;-87
2022/12/24 04:17:59;;;;;;;38.42;5.75;;;6.60;99.90;;;;;;4988651;28;20483;-86
2022/12/24 04:20:52;;;;;;;;;;;;;;;;;;;;;
2022/12/24 04:23:29;;;;;;;41.35;6.63;;;6.80;99.90;;;;;;5016209;28;20046;-85
2022/12/24 04:26:08;;;;;;;37.00;5.95;;;6.80;99.90;;;;;;5018561;28;20372;-88
2022/12/24 04:28:38;;;;;;;45.35;5.90;;;6.70;99.90;;;;;;4998754;28;20038;-85
2022/12/24 04:31:14;;;;;;;49.78;6.55;;;6.80;99.90;;;;;;5008901;28;20049;-85
2022/12/24 04:33:40;;;;;;;39.00;6.70;;;6.90;99.90;;;;;;4991233;28;20680;-84
2022/12/24 04:36:12;;;;;;;44.95;7.15;;;7.00;99.90;;;;;;4999823;28;20043;-87
2022/12/24 04:38:40;;;;;;;37.70;6.25;;;6.90;99.90;;;;;;5003637;28;20373;-87
2022/12/24 04:41:25;;;;;;;50.53;7.05;;;6.90;99.90;;;;;;4989832;28;20076;-86
2022/12/24 04:44:03;;;;;;;48.03;6.47;;;6.80;99.90;;;;;;4995161;28;20042;-84
2022/12/24 04:46:50;;;;;;;38.80;6.68;;;6.70;99.90;;;;;;5003131;28;20080;-89
2022/12/24 04:49:15;;;;;;;41.45;6.07;;;6.60;99.90;;;;;;5020895;28;20152;-87
2022/12/24 04:51:41;;;;;;;43.40;6.40;;;6.80;99.90;;;;;;4984318;28;20128;-86
2022/12/24 04:54:15;;;;;;;44.38;6.57;;;6.80;99.90;;;;;;4993157;28;20075;-86
2022/12/24 04:56:51;;;;;;;;;;;;;;;;;;;;;
2022/12/24 04:59:22;;;;;;;45.20;7.00;;;6.80;99.90;;;;;;5022023;28;20057;-85
2022/12/24 05:01:51;;;;;;;35.78;5.88;;;6.80;99.90;;;;;;5004293;28;20048;-88
2022/12/24 05:04:30;;;;;;;39.70;5.97;;;5.90;99.90;;;;;;5008018;28;20050;-86
2022/12/24 05:07:24;;;;;;;40.72;6.53;;;7.00;99.90;;;;;;4993623;28;20042;-87
2022/12/24 05:10:02;;;;;;;39.92;6.05;;;6.10;99.90;;;;;;4989577;28;20891;-87
2022/12/24 05:12:53;;;;;;;36.53;5.80;;;6.90;99.90;;;;;;4986258;28;20045;-85
2022/12/24 05:15:29;;;;;;;45.67;5.43;;;6.70;99.90;;;;;;5000291;28;20109;-84
2022/12/24 05:18:04;;;;;;;32.85;5.60;;;6.70;99.90;;;;;;4968358;28;20062;-85
2022/12/24 05:20:32;;;;;;;40.28;6.55;;;7.30;99.90;;;;;;4996991;28;20081;-86
2022/12/24 05:26:26;;;;;;;40.80;5.88;;;6.80;99.90;;;;;;4999786;28;20127;-86
2022/12/24 05:28:56;;;;;;;31.98;4.75;;;5.80;99.90;;;;;;4982496;28;20053;-84
2022/12/24 05:31:28;;;;;;;32.05;5.57;;;6.60;99.90;;;;;;5000046;28;20042;-86
2022/12/24 05:34:02;;;;;;;40.95;6.00;;;6.70;99.90;;;;;;4979497;28;20052;-86
2022/12/24 05:36:35;;;;;;;33.90;5.63;;;6.60;99.90;;;;;;4996934;28;20131;-86
2022/12/24 05:39:03;;;;;;;33.60;5.03;;;6.60;99.90;;;;;;5014052;28;20054;-85
2022/12/24 05:41:32;;;;;;;28.25;5.28;;;6.60;99.90;;;;;;4997744;28;20041;-84
2022/12/24 05:44:10;;;;;;;45.55;6.72;;;6.70;99.90;;;;;;4997598;28;20609;-83
2022/12/24 05:46:48;;;;;;;28.77;5.40;;;;;;;;;;4994121;28;20589;-87
2022/12/24 05:49:17;;;;;;;31.17;5.57;;;6.70;99.90;;;;;;5015953;28;20077;-84
2022/12/24 05:51:46;;;;;;;38.30;6.40;;;6.70;99.90;;;;;;5000430;28;20054;-84
2022/12/24 05:54:14;;;;;;;32.65;5.80;;;6.70;99.90;;;;;;4995875;28;20050;-86
2022/12/24 05:56:43;;;;;;;40.20;5.65;;;6.70;99.90;;;;;;4997869;28;20046;-85
2022/12/24 05:59:12;;;;;;;34.78;5.32;;;6.70;99.90;;;;;;5010403;28;20115;-86
2022/12/24 06:01:52;;;;;;;;;;;;;;;;;;;;;
2022/12/24 06:04:48;;;;;;;34.22;5.15;;;6.80;99.90;;;;;;4995958;28;20153;-84
2022/12/24 06:07:16;;;;;;;36.25;5.25;;;6.70;99.90;;;;;;5016256;28;20144;-85
2022/12/24 06:10:02;;;;;;;26.65;5.60;;;6.50;99.90;;;;;;4996479;28;20534;-89
2022/12/24 06:12:49;;;;;;;;;;;;;;;;;;;;;
2022/12/24 06:15:38;;;;;;;37.05;6.18;;;7.00;99.90;;;;;;4983283;28;20046;-89
2022/12/24 06:18:15;;;;;;;29.30;5.45;;;6.80;99.90;;;;;;4995871;28;20096;-87
2022/12/24 06:24:06;;;;;;;;;;;;;;;;;;;;;
2022/12/24 06:26:44;;;;;;;44.90;6.28;;;6.40;99.90;;;;;;5002065;28;20069;-89
2022/12/24 06:29:14;;;;;;;29.80;5.15;;;6.40;99.90;;;;;;4980536;28;20558;-89
2022/12/24 06:31:53;;;;;;;37.90;5.75;;;6.50;99.90;;;;;;4998227;28;20056;-88
2022/12/24 06:37:30;;;;;;;45.33;5.80;;;5.20;99.90;;;;;;5008789;28;20053;-88
2022/12/24 06:40:05;;;;;;;38.97;5.93;;;6.50;99.90;;;;;;4995144;28;20077;-88
2022/12/24 06:42:42;;;;;;;;;;;;;;;;;;;;;
2022/12/24 06:45:11;;;;;;;32.55;5.47;;;6.40;99.90;;;;;;5016240;28;20091;-88
2022/12/24 06:51:09;;;;;;;29.42;4.85;;;6.50;99.90;;;;;;5015572;28;20123;-89
2022/12/24 06:53:49;;;;;;;26.95;4.60;;;6.50;99.90;;;;;;5014876;28;20528;-88
2022/12/24 06:56:24;;;;;;;24.63;4.82;;;6.60;99.90;;;;;;4979767;28;20068;-88
2022/12/24 06:58:53;;;;;;;34.38;5.25;;;6.50;99.90;;;;;;4997233;28;20076;-88
2022/12/24 07:01:49;;;;;;;32.67;4.45;;;6.50;99.90;;;;;;4992093;28;20057;-89
2022/12/24 07:04:17;;;;;;;34.72;6.28;;;5.50;99.90;;;;;;4990942;28;20494;-87
2022/12/24 07:06:43;;;;;;;29.95;4.78;;;5.80;99.90;;;;;;4994321;28;20083;-86
2022/12/24 07:09:13;;;;;;;33.05;4.72;;;6.40;99.90;;;;;;4994429;28;20084;-86
2022/12/24 07:11:52;;;;;;;34.55;5.28;;;6.30;99.90;;;;;;4994632;28;20120;-86
2022/12/24 07:14:29;;;;;;;28.52;4.80;;;6.20;99.90;;;;;;4995622;28;20559;-86
2022/12/24 07:17:06;;;;;;;43.03;5.43;;;5.30;99.90;;;;;;5006421;28;20045;-86
2022/12/24 07:19:34;;;;;;;33.30;4.97;;;6.20;99.90;;;;;;5012216;28;20132;-87
2022/12/24 07:22:05;;;;;;;34.92;4.97;;;5.70;99.90;;;;;;4975465;28;20054;-89
2022/12/24 07:24:33;;;;;;;31.90;5.05;;;6.30;99.90;;;;;;4983157;28;20154;-89
2022/12/24 07:27:05;;;;;;;31.00;5.15;;;6.00;99.90;;;;;;4988557;28;20077;-87
2022/12/24 07:29:33;;;;;;;28.92;4.88;;;5.70;99.90;;;;;;5012406;28;20042;-87
2022/12/24 07:32:04;;;;;;;46.97;5.45;;;6.10;99.90;;;;;;4994667;28;20112;-88
2022/12/24 07:34:42;;;;;;;28.95;5.20;;;6.30;99.90;;;;;;4994502;28;20039;-86
2022/12/24 07:37:16;;;;;;;;;;;6.40;99.90;;;;;;4982738;28;20113;-88
2022/12/24 07:40:12;;;;;;;;;;;;;;;;;;;;;
2022/12/24 07:42:54;;;;;;;29.95;4.40;;;6.40;99.90;;;;;;5003455;28;20077;-88
2022/12/24 07:45:44;;;;;;;;;;;;;;;;;;;;;
2022/12/24 07:48:22;;;;;;;36.55;5.75;;;6.60;99.90;;;;;;4999652;28;20073;-87
2022/12/24 07:51:09;;;;;;;34.08;5.82;;;6.50;99.90;;;;;;4981520;28;20046;-89
2022/12/24 07:53:46;;;;;;;33.03;5.07;;;6.50;99.90;;;;;;4981614;28;20119;-88
2022/12/24 07:56:32;;;;;;;27.95;4.95;;;6.50;99.90;;;;;;4977887;28;20041;-87
2022/12/24 07:59:08;;;;;;;;;;;6.70;99.90;;;;;;4982190;28;20057;-86
2022/12/24 08:01:44;;;;;;;;;;;;;;;;;;;;;
2022/12/24 08:04:40;;;;;;;34.15;6.07;;;6.70;99.90;;;;;;5010027;28;20081;-87
2022/12/24 08:07:11;;;;;;;29.92;5.10;;;6.70;99.90;;;;;;4990329;28;20064;-88
2022/12/24 08:09:49;;;;;;;31.35;4.68;;;6.90;99.90;;;;;;4991365;28;20049;-87
2022/12/24 08:12:15;;;;;;;36.58;4.80;;;6.70;99.90;;;;;;4966772;28;20038;-87
2022/12/24 08:14:46;;;;;;;28.85;5.00;;;5.80;99.90;;;;;;4992445;28;20057;-86
2022/12/24 08:17:17;;;;;;;39.63;5.43;;;7.10;99.90;;;;;;4979043;28;20406;-85
2022/12/24 08:20:09;;;;;;;31.70;5.15;;;7.00;99.90;;;;;;5000872;28;20038;-92
2022/12/24 08:22:40;;;;;;;36.47;5.57;;;5.70;99.90;;;;;;4985168;28;20053;-88
2022/12/24 08:28:02;;;;;;;36.85;5.85;;;6.90;99.90;;;;;;4997687;28;20490;-86
2022/12/24 08:30:47;;;;;;;26.48;4.38;;;7.00;99.90;;;;;;4998302;28;20081;-86
2022/12/24 08:33:13;;;;;;;38.13;4.75;;;7.10;99.90;;;;;;4993758;28;20057;-88
2022/12/24 08:35:50;;;;;;;38.03;5.28;;;7.00;99.90;;;;;;4998825;28;20121;-87
2022/12/24 08:38:17;;;;;;;26.58;5.25;;;6.30;99.90;;;;;;5014268;28;20045;-87
2022/12/24 08:40:48;;;;;;;35.03;5.75;;;7.00;99.90;;;;;;4986777;28;20068;-86
2022/12/24 08:43:52;;;;;;;33.28;4.85;;;7.10;99.90;;;;;;5016273;28;20101;-86
2022/12/24 08:46:23;;;;;;;34.67;5.35;;;7.10;99.90;;;;;;4998910;28;20048;-86
2022/12/24 08:48:51;;;;;;;33.45;4.47;;;7.50;99.90;;;;;;4980960;28;20057;-87
2022/12/24 08:51:18;;;;;;;40.42;5.38;;;7.40;99.90;;;;;;4980263;28;20066;-86
2022/12/24 08:53:49;;;;;;;34.95;5.78;;;7.50;99.90;;;;;;4998056;28;20046;-89
2022/12/24 08:59:07;;;;;;;31.00;5.00;;;7.50;99.90;;;;;;5014511;28;20041;-86
2022/12/24 09:01:49;;;;;;;30.13;5.30;;;7.50;99.90;;;;;;4999223;28;20089;-88
2022/12/24 09:04:45;;;;;;;40.10;5.60;;;6.50;99.90;;;;;;5001149;28;20394;-89
2022/12/24 09:07:14;;;;;;;33.42;5.35;;;7.40;99.90;;;;;;5011835;28;20049;-87
2022/12/24 09:10:06;;;;;;;33.10;4.85;;;7.40;99.90;;;;;;5001463;28;20049;-88
2022/12/24 09:13:01;;;;;;;;;;;;;;;;;;;;;
2022/12/24 09:18:42;;;;;;;;;;;;;;;;;;;;;
2022/12/24 09:21:57;;;;;;;31.27;5.45;;;7.50;99.90;;;;;;5001929;28;20045;-90
2022/12/24 09:24:24;;;;;;;33.78;5.10;;;7.50;99.90;;;;;;5007452;28;20383;-86
2022/12/24 09:26:56;;;;;;;30.45;5.20;;;7.40;99.90;;;;;;4985008;28;20061;-87
2022/12/24 09:29:47;;;;;;;29.08;4.50;;;7.40;99.90;;;;;;5004746;28;20046;-86
2022/12/24 09:32:31;;;;;;;;;;;;;;;;;;;;;
2022/12/24 09:35:04;;;;;;;33.90;5.32;;;7.40;99.90;;;;;;5017419;28;20238;-84
2022/12/24 09:37:39;;;;;;;34.90;5.20;;;7.60;99.90;;;;;;4998764;28;20137;-86
2022/12/24 09:40:22;;;;;;;33.60;4.68;;;7.10;99.90;;;;;;5007787;28;20172;-89
2022/12/24 09:42:54;;;;;;;32.55;6.25;;;6.60;99.90;;;;;;5000511;28;20492;-88
2022/12/24 09:45:39;;;;;;;31.48;5.70;;;6.50;99.90;;;;;;4977337;28;20176;-89
2022/12/24 09:48:34;;;;;;;25.40;5.28;;;7.40;99.90;;;;;;4995047;28;20049;-87
2022/12/24 09:51:26;;;;;;;31.83;5.00;;;7.30;99.90;;;;;;5011200;28;20514;-85
2022/12/24 09:54:36;;;;;;;28.95;5.00;;;7.70;99.90;;;;;;4999732;28;20160;-85
2022/12/24 09:57:32;;;;;;;35.58;5.25;;;7.50;99.90;;;;;;4993616;28;20053;-86
2022/12/24 10:00:13;;;;;;;;;;;;;;;;;;;;;
2022/12/24 10:02:47;;;;;;;30.05;4.97;;;7.40;99.90;;;;;;5013187;28;20057;-86
2022/12/24 10:05:24;;;;;;;35.15;5.30;;;6.90;99.90;;;;;;4967368;28;20407;-87
2022/12/24 10:08:48;;;;;;;31.42;5.70;;;7.50;99.90;;;;;;4996922;28;20399;-87
2022/12/24 10:11:39;;;;;;;23.80;4.60;;;7.50;99.90;;;;;;5017519;28;20054;-86
2022/12/24 10:14:24;;;;;;;29.17;4.50;;;7.60;99.90;;;;;;5001107;28;20475;-89
2022/12/24 10:17:21;;;;;;;29.70;6.00;;;7.70;99.90;;;;;;5031101;28;20133;-87
2022/12/24 10:20:23;;;;;;;;;;;;;;;;;;;;;
2022/12/24 10:23:44;;;;;;;39.25;4.68;;;7.50;99.90;;;;;;5014432;28;20502;-85
2022/12/24 10:26:25;;;;;;;30.75;4.45;;;7.70;99.90;;;;;;4988860;28;20058;-88
2022/12/24 10:29:08;;;;;;;31.27;4.68;;;7.60;99.90;;;;;;5014513;28;20296;-86
2022/12/24 10:32:00;;;;;;;28.55;5.03;;;7.80;99.90;;;;;;4996629;28;20581;-87
2022/12/24 10:34:37;;;;;;;25.83;5.00;;;7.60;99.90;;;;;;4980619;28;20515;-87
2022/12/24 10:37:03;;;;;;;29.63;4.28;;;7.60;99.90;;;;;;4996354;28;20080;-86
2022/12/24 10:39:32;;;;;;;22.55;4.63;;;7.60;99.90;;;;;;5014114;28;20126;-86
2022/12/24 10:41:59;;;;;;;29.48;5.47;;;7.60;99.90;;;;;;4979055;28;20125;-87
2022/12/24 10:44:44;;;;;;;28.63;4.80;;;7.80;99.90;;;;;;4998941;28;20037;-86
2022/12/24 10:47:24;;;;;;;23.95;4.70;;;7.60;99.90;;;;;;4994471;28;20115;-89
2022/12/24 10:50:05;;;;;;;30.83;5.38;;;8.20;99.90;;;;;;4987691;28;20049;-86
2022/12/24 10:52:39;;;;;;;27.77;4.72;;;7.70;99.90;;;;;;4992149;28;20702;-87
2022/12/24 10:55:31;;;;;;;34.08;4.40;;;7.60;99.90;;;;;;4995655;28;20050;-88
2022/12/24 10:58:13;;;;;;;26.63;4.80;;;7.60;99.90;;;;;;5004936;28;20037;-88
2022/12/24 11:00:51;;;;;;;23.38;4.10;;;7.50;99.90;;;;;;5010473;28;20065;-87
2022/12/24 11:03:36;;;;;;;32.33;5.25;;;7.60;99.90;;;;;;4995634;28;20053;-87
2022/12/24 11:06:19;;;;;;;27.60;4.55;;;7.60;99.90;;;;;;4994429;28;20049;-85
2022/12/24 11:08:50;;;;;;;23.27;4.57;;;8.10;99.90;;;;;;5003851;28;20139;-87
2022/12/24 11:11:22;;;;;;;28.08;4.68;;;8.40;99.90;;;;;;5007121;28;20046;-89
2022/12/24 11:14:34;;;;;;;;;;;;;;;;;;;;;
2022/12/24 11:17:28;;;;;;;;;;;;;;;;;;;;;
2022/12/24 11:19:57;;;;;;;21.63;4.13;;;6.40;99.90;;;;;;4991272;28;20042;-88
2022/12/24 11:22:46;;;;;;;25.35;3.78;;;9.00;99.90;;;;;;4990322;28;20120;-88
2022/12/24 11:25:37;;;;;;;28.17;4.53;;;7.70;99.90;;;;;;4974786;28;20715;-91
2022/12/24 11:28:32;;;;;;;22.08;4.20;;;7.70;99.90;;;;;;4993795;28;20120;-87
2022/12/24 11:31:23;;;;;;;20.75;3.78;;;7.80;99.90;;;;;;5010995;28;20042;-90
2022/12/24 11:33:52;;;;;;;25.77;4.60;;;7.60;99.90;;;;;;4992022;28;20041;-88
2022/12/24 11:36:49;;;;;;;25.55;4.78;;;7.60;99.90;;;;;;4995619;28;20072;-89
2022/12/24 11:39:19;;;;;;;;;;;7.70;99.90;;;;;;4996019;28;20042;-89
2022/12/24 11:42:43;;;;;;;;;;;;;;;;;;;;;
2022/12/24 11:45:26;;;;;;;21.58;3.10;;;6.90;99.90;;;;;;5008087;28;20315;-86
2022/12/24 11:48:55;;;;;;;;;;;;;;;;;;;;;
2022/12/24 11:51:33;;;;;;;19.27;3.38;;;7.60;99.90;;;;;;5008745;28;20137;-86
2022/12/24 11:54:07;;;;;;;18.80;3.65;;;7.50;99.90;;;;;;5008121;28;20056;-86
2022/12/24 11:56:48;;;;;;;22.35;4.13;;;7.50;99.90;;;;;;4991234;28;20038;-86
2022/12/24 11:59:27;;;;;;;19.00;3.38;;;7.60;99.90;;;;;;5005456;28;20049;-86
2022/12/24 12:05:04;;;;;;;22.48;3.50;;;7.60;99.90;;;;;;4993866;28;20054;-86
2022/12/24 12:07:40;;;;;;;16.27;3.53;;;7.70;99.90;;;;;;4993765;28;20056;-86
2022/12/24 12:10:36;;;;;;;26.00;4.15;;;7.70;99.90;;;;;;4990444;28;20042;-86
2022/12/24 12:13:16;;;;;;;21.08;3.80;;;7.70;99.90;;;;;;4995864;28;20049;-86
2022/12/24 12:16:23;;;;;;;17.00;3.15;;;7.70;99.90;;;;;;4997821;28;20077;-86
2022/12/24 12:19:00;;;;;;;18.65;3.90;;;7.60;99.90;;;;;;4963402;28;20057;-85
2022/12/24 12:21:37;;;;;;;22.27;3.63;;;7.70;99.90;;;;;;5000518;28;20491;-89
2022/12/24 12:24:10;;;;;;;23.17;3.85;;;7.70;99.90;;;;;;5000921;28;20049;-86
2022/12/24 12:26:50;;;;;;;;;;;;;;;;;;;;;
2022/12/24 12:29:35;;;;;;;17.35;4.07;;;7.70;99.90;;;;;;5009905;28;20048;-86
2022/12/24 12:32:06;;;;;;;17.25;3.85;;;7.70;99.90;;;;;;5017632;28;20042;-86
2022/12/24 12:34:59;;;;;;;14.23;3.92;;;6.50;99.90;;;;;;4995758;28;20045;-88
2022/12/24 12:37:37;;;;;;;18.27;3.67;;;7.70;99.90;;;;;;4999269;28;20057;-87
2022/12/24 12:40:13;;;;;;;24.33;4.00;;;7.60;99.90;;;;;;5014974;28;20100;-86
2022/12/24 12:42:39;;;;;;;;;;;7.60;99.90;;;;;;4999406;28;20103;-86
2022/12/24 12:45:26;;;;;;;23.25;4.15;;;7.70;99.90;;;;;;4994583;28;19925;-85
2022/12/24 12:48:22;;;;;;;21.88;4.32;;;7.70;99.90;;;;;;5004656;28;20050;-87
2022/12/24 12:50:59;;;;;;;23.00;3.58;;;7.70;99.90;;;;;;5013386;28;20053;-86
2022/12/24 12:54:11;;;;;;;18.15;3.60;;;7.70;99.90;;;;;;5012288;28;20047;-85
2022/12/24 12:56:42;;;;;;;17.35;3.75;;;7.80;99.90;;;;;;5028275;28;20049;-87
2022/12/24 12:59:26;;;;;;;17.35;3.47;;;7.80;99.90;;;;;;4994991;28;20046;-86
2022/12/24 13:02:16;;;;;;;18.13;3.22;;;8.00;99.90;;;;;;4993950;28;20133;-86
2022/12/24 13:05:05;;;;;;;23.15;3.75;;;7.80;99.90;;;;;;4994631;28;20498;-85
2022/12/24 13:08:09;;;;;;;13.80;3.17;;;7.90;99.90;;;;;;4993096;28;20491;-86
2022/12/24 13:10:58;;;;;;;20.95;3.20;;;7.70;99.90;;;;;;5014572;28;20411;-88
2022/12/24 13:13:43;;;;;;;;;;;7.30;99.90;;;;;;4998745;28;20053;-85
2022/12/24 13:16:15;;;;;;;16.70;2.78;;;7.50;99.90;;;;;;5005044;28;19925;-86
2022/12/24 13:19:09;;;;;;;15.50;3.13;;;6.60;99.90;;;;;;4995985;28;20049;-86
2022/12/24 13:21:37;;;;;;;20.65;2.97;;;7.60;99.90;;;;;;5016052;28;20103;-89
2022/12/24 13:24:29;;;;;;;;;;;;;;;;;;;;;
2022/12/24 13:27:22;;;;;;;15.13;2.92;;;7.40;99.90;;;;;;5013922;28;20073;-85
2022/12/24 13:29:57;;;;;;;18.60;3.45;;;7.50;99.90;;;;;;4994313;28;20053;-85
2022/12/24 13:32:26;;;;;;;18.98;3.15;;;7.50;99.90;;;;;;5000603;28;20079;-86
2022/12/24 13:35:06;;;;;;;18.85;3.60;;;7.50;99.90;;;;;;4997031;28;20384;-87
2022/12/24 13:37:35;;;;;;;13.70;3.53;;;7.40;99.90;;;;;;4994409;28;20267;-84
2022/12/24 13:40:28;;;;;;;19.80;3.90;;;7.40;99.90;;;;;;4999104;28;20050;-89
2022/12/24 13:43:11;;;;;;;16.30;3.78;;;6.50;99.90;;;;;;5013924;28;20398;-85
2022/12/24 13:45:37;;;;;;;24.00;3.80;;;7.30;99.90;;;;;;5012369;28;20096;-87
2022/12/24 13:48:45;;;;;;;16.13;3.10;;;8.40;99.90;;;;;;5011130;28;20053;-93
2022/12/24 13:51:34;;;;;;;20.33;4.28;;;7.20;99.90;;;;;;4994840;28;20056;-88
2022/12/24 13:54:00;;;;;;;18.77;3.95;;;6.10;99.90;;;;;;4998099;28;20056;-87
2022/12/24 13:56:35;;;;;;;21.63;3.60;;;7.00;99.90;;;;;;4982534;28;20072;-85
2022/12/24 13:59:30;;;;;;;16.75;3.97;;;7.00;99.90;;;;;;4993405;28;20130;-86
2022/12/24 14:01:58;;;;;;;21.27;3.92;;;7.10;99.90;;;;;;4994100;28;20479;-86
2022/12/24 14:04:36;;;;;;;12.43;3.30;;;7.10;99.90;;;;;;4993528;28;20104;-86
2022/12/24 14:07:32;;;;;;;;;;;;;;;;;;;;;
2022/12/24 14:10:05;;;;;;;18.52;4.38;;;7.00;99.90;;;;;;5010318;28;20047;-84
2022/12/24 14:12:51;;;;;;;22.60;3.47;;;7.00;99.90;;;;;;4981370;28;20045;-85
2022/12/24 14:15:39;;;;;;;;;;;7.00;99.90;;;;;;5001959;28;20554;-85
2022/12/24 14:18:07;;;;;;;18.77;5.03;;;7.20;99.90;;;;;;5008974;28;19925;-85
2022/12/24 14:20:37;;;;;;;18.90;4.15;;;7.10;99.90;;;;;;5001606;28;20139;-86
2022/12/24 14:23:33;;;;;;;25.13;8.38;;;7.00;99.90;;;;;;4982475;28;20046;-85
2022/12/24 14:26:05;;;;;;;29.27;6.93;;;6.90;99.90;;;;;;5019215;28;20524;-85
2022/12/24 14:29:16;;;;;;;;;;;;;;;;;;;;;
2022/12/24 14:32:04;;;;;;;;;;;;;;;;;;;;;
2022/12/24 14:34:40;;;;;;;29.67;10.90;;;6.90;99.90;;;;;;4994275;28;20604;-84
2022/12/24 14:37:15;;;;;;;24.13;8.98;;;7.10;99.90;;;;;;5008048;28;20060;-84
2022/12/24 14:39:57;;;;;;;;;;;;;;;;;;;;;
2022/12/24 14:42:48;;;;;;;16.23;4.00;;;6.80;99.90;;;;;;5010608;28;20368;-85
2022/12/24 14:45:29;;;;;;;15.05;2.78;;;6.90;99.90;;;;;;5009691;28;20590;-86
2022/12/24 14:48:03;;;;;;;23.75;3.22;;;6.00;99.90;;;;;;4987387;28;20578;-83
2022/12/24 14:50:45;;;;;;;23.60;3.88;;;6.70;99.90;;;;;;4994314;28;20495;-84
2022/12/24 14:53:41;;;;;;;17.48;3.22;;;6.80;99.90;;;;;;5010599;28;20045;-89
2022/12/24 14:56:30;;;;;;;;;;;;;;;;;;;;;
2022/12/24 14:59:04;;;;;;;20.70;3.90;;;6.80;99.90;;;;;;5013090;28;20042;-90
2022/12/24 15:01:51;;;;;;;20.80;3.78;;;6.90;99.90;;;;;;4993667;28;20121;-92
2022/12/24 15:04:25;;;;;;;17.70;3.25;;;6.90;99.90;;;;;;5003960;28;20276;-86